createdAt,value
2018-11-27T00:01:58.983Z,59.00
2018-11-27T00:04:26.958Z,59.70
2018-11-27T00:06:55.123Z,60.10
2018-11-27T00:09:23.262Z,60.30
2018-11-27T00:11:51.415Z,61.00
2018-11-27T00:14:19.654Z,59.50
2018-11-27T00:16:47.779Z,59.60
2018-11-27T00:19:15.939Z,60.50
2018-11-27T00:21:44.171Z,60.50
2018-11-27T00:24:12.339Z,59.50
2018-11-27T00:26:40.534Z,60.10
2018-11-27T00:29:08.695Z,60.80
2018-11-27T00:31:36.844Z,61.00
2018-11-27T00:34:05.269Z,60.60
2018-11-27T00:36:33.444Z,62.40
2018-11-27T00:39:01.639Z,62.40
2018-11-27T00:41:29.796Z,60.70
2018-11-27T00:43:57.966Z,60.60
2018-11-27T00:46:26.124Z,60.00
2018-11-27T00:48:54.250Z,61.10
2018-11-27T00:51:22.403Z,59.10
2018-11-27T00:53:50.603Z,59.10
2018-11-27T00:56:18.732Z,58.40
2018-11-27T00:58:46.859Z,58.10
2018-11-27T01:01:15.012Z,56.60
2018-11-27T01:03:43.179Z,57.00
2018-11-27T01:06:11.318Z,56.80
2018-11-27T01:08:39.538Z,56.60
2018-11-27T01:11:07.731Z,56.80
2018-11-27T01:13:35.836Z,57.50
2018-11-27T01:16:04.008Z,57.30
2018-11-27T01:18:32.152Z,56.10
2018-11-27T01:21:00.281Z,55.80
2018-11-27T01:23:28.451Z,55.50
2018-11-27T01:25:56.573Z,55.60
2018-11-27T01:28:24.714Z,56.20
2018-11-27T01:30:52.907Z,57.70
2018-11-27T01:33:21.015Z,58.90
2018-11-27T01:35:49.122Z,59.30
2018-11-27T01:38:17.277Z,59.00
2018-11-27T01:40:45.441Z,59.10
2018-11-27T01:43:13.567Z,58.30
2018-11-27T01:45:41.715Z,57.70
2018-11-27T01:48:09.862Z,58.00
2018-11-27T01:50:37.999Z,59.30
2018-11-27T01:53:06.321Z,59.50
2018-11-27T01:55:34.477Z,59.00
2018-11-27T01:58:02.622Z,59.30
2018-11-27T02:00:30.878Z,58.70
2018-11-27T02:03:00.880Z,59.20
2018-11-27T02:05:29.465Z,57.90
2018-11-27T02:07:57.615Z,58.20
2018-11-27T02:10:25.792Z,58.50
2018-11-27T02:12:54.818Z,58.60
2018-11-27T02:15:26.451Z,59.00
2018-11-27T02:17:54.606Z,60.00
2018-11-27T02:20:22.743Z,59.00
2018-11-27T02:22:50.940Z,59.10
2018-11-27T02:25:22.758Z,58.40
2018-11-27T02:27:50.943Z,58.00
2018-11-27T02:30:22.292Z,57.20
2018-11-27T02:32:50.495Z,56.90
2018-11-27T02:35:19.695Z,57.90
2018-11-27T02:37:49.376Z,58.00
2018-11-27T02:40:18.022Z,58.40
2018-11-27T02:42:46.212Z,57.50
2018-11-27T02:45:16.748Z,57.80
2018-11-27T02:47:45.218Z,57.20
2018-11-27T02:50:17.485Z,57.70
2018-11-27T02:52:45.613Z,58.50
2018-11-27T02:55:14.629Z,58.30
2018-11-27T02:57:42.791Z,58.40
2018-11-27T03:00:11.895Z,58.00
2018-11-27T03:02:40.158Z,58.20
2018-11-27T03:05:13.606Z,57.90
2018-11-27T03:07:41.773Z,58.90
2018-11-27T03:10:12.442Z,59.40
2018-11-27T03:12:40.615Z,59.10
2018-11-27T03:15:17.792Z,58.90
2018-11-27T03:17:45.897Z,59.20
2018-11-27T03:20:14.983Z,59.10
2018-11-27T03:22:43.118Z,58.40
2018-11-27T03:25:12.282Z,57.50
2018-11-27T03:27:40.424Z,56.90
2018-11-27T03:30:15.351Z,57.00
2018-11-27T03:32:43.479Z,56.70
2018-11-27T03:35:14.371Z,56.90
2018-11-27T03:37:42.654Z,56.80
2018-11-27T03:40:13.136Z,56.40
2018-11-27T03:42:41.321Z,57.60
2018-11-27T03:45:11.083Z,56.40
2018-11-27T03:47:39.266Z,55.70
2018-11-27T03:50:12.816Z,56.80
2018-11-27T03:52:41.034Z,57.70
2018-11-27T03:55:10.603Z,56.90
2018-11-27T03:57:38.944Z,56.10
2018-11-27T04:00:11.420Z,55.20
2018-11-27T04:02:39.624Z,53.70
2018-11-27T04:05:08.561Z,53.80
2018-11-27T04:07:36.803Z,52.90
2018-11-27T04:10:08.459Z,52.00
2018-11-27T04:12:36.697Z,52.60
2018-11-27T04:15:05.060Z,52.40
2018-11-27T04:17:33.284Z,52.60
2018-11-27T04:20:01.500Z,50.70
2018-11-27T04:22:29.669Z,51.50
2018-11-27T04:24:57.837Z,50.30
2018-11-27T04:27:26.028Z,50.30
2018-11-27T04:29:54.267Z,49.30
2018-11-27T04:32:22.535Z,49.50
2018-11-27T04:34:50.678Z,51.10
2018-11-27T04:37:18.831Z,49.30
2018-11-27T04:39:46.970Z,49.10
2018-11-27T04:42:15.181Z,50.10
2018-11-27T04:44:43.397Z,49.20
2018-11-27T04:47:11.681Z,49.70
2018-11-27T04:49:39.827Z,46.90
2018-11-27T04:52:08.112Z,48.50
2018-11-27T04:54:36.411Z,48.00
2018-11-27T04:57:04.659Z,48.00
2018-11-27T04:59:32.953Z,47.70
2018-11-27T05:02:01.232Z,47.70
2018-11-27T05:04:29.412Z,47.50
2018-11-27T05:06:57.745Z,47.20
2018-11-27T05:09:25.932Z,47.10
2018-11-27T05:11:54.110Z,46.30
2018-11-27T05:14:22.302Z,46.90
2018-11-27T05:16:51.446Z,48.10
2018-11-27T05:19:19.595Z,48.60
2018-11-27T05:21:47.747Z,46.90
2018-11-27T05:24:15.966Z,45.90
2018-11-27T05:26:44.123Z,47.60
2018-11-27T05:29:12.302Z,48.60
2018-11-27T05:31:40.454Z,47.90
2018-11-27T05:34:08.641Z,48.60
2018-11-27T05:36:36.849Z,48.90
2018-11-27T05:39:08.144Z,48.00
2018-11-27T05:41:36.497Z,46.80
2018-11-27T05:44:06.405Z,48.00
2018-11-27T05:46:34.591Z,47.20
2018-11-27T05:49:02.781Z,46.80
2018-11-27T05:51:30.918Z,46.20
2018-11-27T05:53:59.068Z,46.50
2018-11-27T05:56:27.229Z,46.80
2018-11-27T05:58:55.377Z,47.10
2018-11-27T06:01:23.607Z,45.50
2018-11-27T06:03:51.724Z,45.90
2018-11-27T06:06:19.991Z,46.20
2018-11-27T06:08:48.147Z,49.00
2018-11-27T06:11:16.320Z,49.10
2018-11-27T06:13:44.604Z,49.50
2018-11-27T06:16:12.803Z,49.40
2018-11-27T06:18:40.959Z,49.60
2018-11-27T06:21:09.179Z,49.10
2018-11-27T06:23:37.376Z,47.70
2018-11-27T06:26:06.099Z,47.10
2018-11-27T06:28:34.249Z,47.80
2018-11-27T06:31:02.428Z,47.70
2018-11-27T06:33:30.566Z,46.50
2018-11-27T06:35:58.727Z,48.20
2018-11-27T06:38:26.863Z,47.60
2018-11-27T06:40:55.010Z,48.50
2018-11-27T06:43:24.584Z,47.80
2018-11-27T06:45:52.715Z,48.40
2018-11-27T06:48:21.062Z,47.10
2018-11-27T06:50:49.208Z,47.40
2018-11-27T06:53:17.346Z,45.70
2018-11-27T06:55:45.559Z,44.30
2018-11-27T06:58:13.755Z,44.90
2018-11-27T07:00:41.894Z,45.00
2018-11-27T07:03:11.477Z,44.50
2018-11-27T07:05:39.654Z,45.10
2018-11-27T07:08:08.638Z,47.30
2018-11-27T07:10:37.735Z,47.20
2018-11-27T07:13:22.423Z,47.60
2018-11-27T07:15:51.173Z,46.00
2018-11-27T07:18:19.394Z,46.20
2018-11-27T07:20:47.535Z,48.60
2018-11-27T07:23:15.689Z,49.50
2018-11-27T07:25:43.832Z,48.70
2018-11-27T07:28:11.984Z,48.10
2018-11-27T07:30:41.272Z,46.40
2018-11-27T07:33:09.467Z,46.50
2018-11-27T07:35:37.632Z,45.50
2018-11-27T07:38:06.388Z,45.30
2018-11-27T07:40:34.553Z,45.20
2018-11-27T07:43:05.720Z,44.80
2018-11-27T07:45:33.894Z,44.80
2018-11-27T07:48:02.095Z,45.10
2018-11-27T07:50:30.226Z,44.20
2018-11-27T07:52:58.343Z,46.00
2018-11-27T07:55:26.503Z,44.20
2018-11-27T07:57:55.105Z,44.10
2018-11-27T08:00:24.957Z,44.00
2018-11-27T08:02:54.532Z,43.10
2018-11-27T08:05:25.002Z,44.00
2018-11-27T08:07:54.225Z,43.50
2018-11-27T08:10:24.997Z,42.80
2018-11-27T08:12:53.139Z,42.30
2018-11-27T08:15:23.337Z,43.90
2018-11-27T08:17:51.522Z,43.80
2018-11-27T08:20:22.836Z,44.40
2018-11-27T08:22:51.007Z,42.40
2018-11-27T08:25:19.193Z,41.80
2018-11-27T08:27:47.343Z,41.80
2018-11-27T08:30:16.716Z,41.20
2018-11-27T08:32:44.934Z,41.20
2018-11-27T08:35:15.319Z,42.30
2018-11-27T08:37:43.666Z,40.80
2018-11-27T08:40:12.993Z,38.00
2018-11-27T08:42:41.170Z,38.60
2018-11-27T08:45:25.353Z,39.40
2018-11-27T08:47:54.636Z,39.40
2018-11-27T08:50:24.707Z,39.90
2018-11-27T08:52:55.179Z,39.10
2018-11-27T08:55:24.633Z,38.50
2018-11-27T08:57:53.070Z,37.50
2018-11-27T09:00:22.377Z,38.30
2018-11-27T09:02:50.532Z,38.60
2018-11-27T09:05:18.675Z,38.80
2018-11-27T09:07:47.073Z,38.80
2018-11-27T09:10:19.261Z,37.70
2018-11-27T09:12:47.464Z,38.40
2018-11-27T09:15:16.961Z,39.10
2018-11-27T09:17:46.718Z,38.00
2018-11-27T09:20:14.872Z,38.50
2018-11-27T09:22:43.014Z,38.30
2018-11-27T09:25:13.021Z,38.10
2018-11-27T09:27:41.146Z,38.30
2018-11-27T09:30:18.412Z,37.40
2018-11-27T09:32:46.581Z,36.30
2018-11-27T09:35:15.506Z,33.40
2018-11-27T09:37:43.670Z,32.20
2018-11-27T09:40:13.977Z,31.70
2018-11-27T09:42:42.103Z,31.90
2018-11-27T09:45:12.561Z,32.00
2018-11-27T09:47:41.083Z,30.70
2018-11-27T09:50:11.129Z,29.50
2018-11-27T09:52:39.316Z,30.20
2018-11-27T09:55:09.740Z,30.40
2018-11-27T09:57:37.900Z,30.60
2018-11-27T10:00:11.438Z,30.20
2018-11-27T10:02:39.591Z,29.40
2018-11-27T10:05:08.254Z,29.40
2018-11-27T10:07:36.465Z,29.50
2018-11-27T10:10:06.744Z,27.40
2018-11-27T10:12:34.935Z,28.30
2018-11-27T10:15:03.187Z,29.20
2018-11-27T10:17:31.352Z,26.70
2018-11-27T10:19:59.516Z,25.40
2018-11-27T10:22:27.676Z,25.90
2018-11-27T10:24:55.796Z,24.60
2018-11-27T10:27:24.022Z,21.20
2018-11-27T10:29:52.240Z,22.10
2018-11-27T10:32:20.398Z,21.60
2018-11-27T10:34:48.567Z,20.90
2018-11-27T10:37:16.688Z,20.70
2018-11-27T10:39:44.835Z,22.60
2018-11-27T10:42:13.807Z,22.60
2018-11-27T10:44:41.315Z,19.70
2018-11-27T10:47:09.501Z,18.50
2018-11-27T10:49:38.177Z,19.40
2018-11-27T10:52:06.133Z,18.70
2018-11-27T10:54:34.258Z,19.30
2018-11-27T10:57:02.439Z,20.70
2018-11-27T10:59:30.571Z,19.60
2018-11-27T11:02:04.203Z,19.40
2018-11-27T11:04:32.419Z,19.90
2018-11-27T11:07:00.638Z,19.60
2018-11-27T11:09:28.811Z,19.60
2018-11-27T11:11:59.241Z,18.70
2018-11-27T11:14:25.150Z,18.50
2018-11-27T11:16:53.270Z,18.10
2018-11-27T11:19:21.540Z,18.70
2018-11-27T11:21:49.646Z,20.00
2018-11-27T11:24:17.791Z,19.70
2018-11-27T11:26:45.992Z,19.80
2018-11-27T11:29:14.216Z,19.50
2018-11-27T11:31:42.326Z,20.20
2018-11-27T11:34:10.489Z,20.40
2018-11-27T11:36:38.630Z,20.90
2018-11-27T11:39:09.227Z,20.80
2018-11-27T11:41:37.458Z,20.10
2018-11-27T11:44:05.943Z,20.50
2018-11-27T11:46:34.119Z,19.90
2018-11-27T11:49:02.319Z,19.10
2018-11-27T11:51:30.484Z,19.20
2018-11-27T11:53:58.614Z,20.10
2018-11-27T11:56:26.754Z,23.20
2018-11-27T11:58:54.914Z,22.10
2018-11-27T12:01:23.033Z,20.30
2018-11-27T12:03:51.524Z,20.80
2018-11-27T12:06:19.671Z,20.40
2018-11-27T12:08:47.847Z,22.60
2018-11-27T12:11:16.065Z,23.90
2018-11-27T12:13:44.203Z,23.50
2018-11-27T12:16:12.407Z,21.80
2018-11-27T12:18:40.575Z,22.30
2018-11-27T12:21:08.774Z,23.60
2018-11-27T12:23:36.858Z,23.60
2018-11-27T12:26:05.246Z,22.80
2018-11-27T12:28:33.384Z,23.70
2018-11-27T12:31:01.531Z,23.00
2018-11-27T12:33:29.743Z,24.50
2018-11-27T12:35:57.841Z,25.40
2018-11-27T12:38:25.997Z,24.80
2018-11-27T12:40:54.139Z,27.30
2018-11-27T12:43:22.292Z,28.00
2018-11-27T12:45:50.407Z,25.50
2018-11-27T12:48:18.518Z,24.00
2018-11-27T12:50:50.221Z,24.30
2018-11-27T12:53:18.765Z,25.10
2018-11-27T12:55:49.184Z,25.70
2018-11-27T12:58:17.332Z,25.00
2018-11-27T13:00:45.475Z,26.10
2018-11-27T13:03:13.592Z,24.80
2018-11-27T13:05:43.464Z,25.60
2018-11-27T13:08:13.730Z,25.10
2018-11-27T13:10:41.888Z,25.20
2018-11-27T13:13:10.773Z,24.60
2018-11-27T13:15:39.994Z,25.90
2018-11-27T13:18:09.221Z,25.70
2018-11-27T13:20:37.605Z,25.80
2018-11-27T13:23:05.930Z,26.00
2018-11-27T13:25:34.033Z,25.80
2018-11-27T13:28:02.187Z,26.40
2018-11-27T13:30:48.383Z,25.70
2018-11-27T13:33:19.432Z,26.70
2018-11-27T13:35:47.609Z,27.20
2018-11-27T13:38:15.760Z,28.10
2018-11-27T13:40:43.941Z,28.00
2018-11-27T13:43:20.236Z,29.40
2018-11-27T13:45:48.404Z,29.20
2018-11-27T13:48:16.546Z,28.90
2018-11-27T13:50:44.734Z,30.90
2018-11-27T13:53:12.847Z,31.20
2018-11-27T13:55:40.945Z,32.80
2018-11-27T13:58:09.115Z,32.90
2018-11-27T14:00:37.271Z,31.70
2018-11-27T14:03:10.645Z,32.50
2018-11-27T14:05:33.872Z,32.70
2018-11-27T14:08:02.032Z,32.90
2018-11-27T14:10:30.224Z,33.40
2018-11-27T14:12:58.388Z,33.10
2018-11-27T14:15:26.550Z,33.90
2018-11-27T14:17:55.839Z,32.50
2018-11-27T14:20:24.001Z,32.10
2018-11-27T14:22:52.169Z,32.80
2018-11-27T14:25:20.341Z,33.30
2018-11-27T14:27:51.245Z,34.00
2018-11-27T14:30:23.099Z,34.10
2018-11-27T14:32:51.584Z,34.30
2018-11-27T14:35:20.627Z,34.60
2018-11-27T14:37:50.102Z,34.70
2018-11-27T14:40:22.368Z,35.10
2018-11-27T14:42:50.520Z,36.30
2018-11-27T14:45:20.057Z,37.20
2018-11-27T14:47:49.351Z,37.60
2018-11-27T14:50:17.504Z,37.70
2018-11-27T14:52:45.644Z,37.90
2018-11-27T14:55:16.966Z,38.00
2018-11-27T14:57:45.143Z,38.20
2018-11-27T15:00:14.286Z,38.80
2018-11-27T15:02:42.527Z,39.10
2018-11-27T15:05:12.106Z,39.90
2018-11-27T15:07:40.303Z,39.20
2018-11-27T15:10:10.090Z,39.60
2018-11-27T15:12:38.244Z,40.60
2018-11-27T15:15:08.005Z,42.60
2018-11-27T15:17:36.236Z,43.10
2018-11-27T15:20:07.427Z,42.80
2018-11-27T15:22:35.543Z,42.60
2018-11-27T15:25:03.693Z,43.20
2018-11-27T15:27:31.880Z,44.40
2018-11-27T15:30:00.043Z,45.00
2018-11-27T15:32:28.211Z,45.70
2018-11-27T15:34:56.379Z,44.70
2018-11-27T15:37:24.588Z,44.50
2018-11-27T15:39:52.757Z,44.50
2018-11-27T15:42:20.883Z,45.70
2018-11-27T15:44:49.018Z,45.90
2018-11-27T15:47:17.166Z,46.70
2018-11-27T15:49:45.318Z,47.00
2018-11-27T15:52:13.491Z,47.30
2018-11-27T15:54:41.667Z,47.80
2018-11-27T15:57:09.910Z,49.20
2018-11-27T15:59:38.116Z,48.70
2018-11-27T16:02:06.274Z,49.50
2018-11-27T16:04:34.766Z,49.50
2018-11-27T16:07:02.911Z,49.20
2018-11-27T16:09:31.259Z,50.70
2018-11-27T16:11:59.400Z,51.70
2018-11-27T16:14:27.532Z,52.50
2018-11-27T16:16:55.689Z,53.10
2018-11-27T16:19:23.811Z,53.60
2018-11-27T16:21:51.970Z,53.10
2018-11-27T16:24:20.140Z,53.80
2018-11-27T16:26:48.241Z,54.40
2018-11-27T16:29:16.369Z,54.50
2018-11-27T16:31:44.980Z,55.50
2018-11-27T16:34:12.631Z,55.50
2018-11-27T16:36:40.807Z,55.20
2018-11-27T16:39:11.113Z,56.20
2018-11-27T16:41:39.326Z,56.80
2018-11-27T16:44:07.463Z,56.20
2018-11-27T16:46:35.639Z,55.90
2018-11-27T16:49:03.807Z,56.20
2018-11-27T16:51:31.996Z,56.20
2018-11-27T16:54:00.134Z,55.80
2018-11-27T16:56:28.310Z,56.10
2018-11-27T16:58:56.468Z,57.50
2018-11-27T17:01:24.629Z,57.40
2018-11-27T17:03:52.770Z,57.50
2018-11-27T17:06:20.953Z,58.30
2018-11-27T17:08:49.100Z,57.80
2018-11-27T17:11:17.245Z,57.30
2018-11-27T17:13:45.547Z,57.60
2018-11-27T17:16:13.705Z,56.90
2018-11-27T17:18:41.934Z,56.80
2018-11-27T17:21:10.096Z,57.60
2018-11-27T17:23:38.223Z,58.00
2018-11-27T17:26:06.682Z,58.30
2018-11-27T17:28:35.008Z,58.30
2018-11-27T17:31:10.407Z,58.40
2018-11-27T17:33:45.473Z,58.90
2018-11-27T17:36:13.639Z,59.10
2018-11-27T17:38:41.868Z,59.80
2018-11-27T17:41:10.315Z,60.00
2018-11-27T17:43:38.936Z,59.80
2018-11-27T17:46:07.427Z,59.30
2018-11-27T17:48:35.659Z,60.10
2018-11-27T17:51:03.810Z,59.70
2018-11-27T17:53:31.982Z,59.50
2018-11-27T17:56:00.178Z,59.50
2018-11-27T17:58:28.359Z,59.60
2018-11-27T18:00:56.524Z,60.00
2018-11-27T18:03:24.739Z,60.20
2018-11-27T18:05:52.916Z,60.60
2018-11-27T18:08:21.124Z,60.40
2018-11-27T18:10:49.465Z,60.80
2018-11-27T18:13:17.654Z,61.20
2018-11-27T18:15:45.828Z,61.50
2018-11-27T18:18:14.133Z,61.90
2018-11-27T18:20:42.266Z,62.40
2018-11-27T18:23:10.494Z,62.50
2018-11-27T18:25:38.717Z,62.30
2018-11-27T18:28:06.879Z,62.40
2018-11-27T18:30:35.071Z,63.00
2018-11-27T18:33:03.234Z,63.00
2018-11-27T18:35:31.400Z,63.00
2018-11-27T18:37:59.696Z,62.70
2018-11-27T18:40:28.007Z,62.60
2018-11-27T18:42:56.186Z,63.10
2018-11-27T18:52:23.751Z,63.60
2018-11-27T18:54:51.918Z,63.90
2018-11-27T18:57:20.108Z,64.30
2018-11-27T18:59:48.360Z,64.40
2018-11-27T19:02:16.650Z,65.10
2018-11-27T19:04:45.097Z,65.60
2018-11-27T19:07:13.384Z,65.80
2018-11-27T19:09:41.562Z,66.20
2018-11-27T19:12:09.806Z,66.40
2018-11-27T19:14:38.029Z,66.90
2018-11-27T19:17:06.799Z,67.50
2018-11-27T19:19:35.026Z,67.90
2018-11-27T19:22:03.225Z,68.60
2018-11-27T19:24:31.823Z,68.90
2018-11-27T19:27:00.028Z,69.00
2018-11-27T19:29:28.214Z,69.20
2018-11-27T19:31:56.428Z,68.80
2018-11-27T19:34:24.680Z,68.40
2018-11-27T19:36:52.874Z,68.30
2018-11-27T19:39:21.064Z,69.20
2018-11-27T19:41:49.282Z,69.60
2018-11-27T19:44:17.503Z,69.50
2018-11-27T19:46:45.779Z,69.40
2018-11-27T19:49:14.040Z,69.30
2018-11-27T19:51:42.232Z,69.90
2018-11-27T19:54:10.513Z,70.00
2018-11-27T19:56:38.707Z,69.10
2018-11-27T19:59:06.975Z,68.90
2018-11-27T20:01:35.475Z,69.10
2018-11-27T20:04:03.723Z,69.10
2018-11-27T20:06:31.918Z,68.90
2018-11-27T20:09:00.058Z,68.20
2018-11-27T20:11:28.192Z,68.60
2018-11-27T20:13:57.356Z,69.00
2018-11-27T20:16:25.897Z,68.70
2018-11-27T20:18:54.051Z,68.90
2018-11-27T20:21:22.260Z,69.40
2018-11-27T20:23:50.447Z,68.50
2018-11-27T20:26:18.642Z,68.70
2018-11-27T20:28:46.808Z,69.00
2018-11-27T20:31:14.982Z,69.70
2018-11-27T20:33:43.219Z,69.30
2018-11-27T20:36:11.431Z,69.40
2018-11-27T20:38:39.617Z,69.20
2018-11-27T20:41:07.865Z,69.30
2018-11-27T20:43:36.098Z,69.00
2018-11-27T20:46:04.533Z,68.70
2018-11-27T20:48:32.719Z,68.60
2018-11-27T20:51:00.908Z,68.90
2018-11-27T20:53:29.148Z,69.30
2018-11-27T20:55:57.383Z,68.70
2018-11-27T20:58:25.583Z,68.30
2018-11-27T21:00:53.951Z,68.10
2018-11-27T21:03:22.181Z,68.40
2018-11-27T21:05:50.538Z,68.10
2018-11-27T21:08:18.743Z,68.40
2018-11-27T21:10:46.935Z,69.00
2018-11-27T21:13:15.154Z,68.80
2018-11-27T21:15:43.793Z,68.30
2018-11-27T21:18:12.507Z,68.30
2018-11-27T21:20:41.386Z,68.20
2018-11-27T21:23:09.563Z,67.60
2018-11-27T21:25:37.806Z,67.80
2018-11-27T21:28:09.026Z,67.40
2018-11-27T21:30:37.310Z,67.60
2018-11-27T21:33:05.796Z,66.80
2018-11-27T21:35:33.943Z,67.60
2018-11-27T21:38:02.127Z,67.80
2018-11-27T21:40:30.333Z,67.70
2018-11-27T21:42:58.495Z,67.90
2018-11-27T21:45:27.312Z,67.30
2018-11-27T21:47:56.754Z,67.00
2018-11-27T21:50:30.412Z,68.00
2018-11-27T21:52:59.955Z,68.50
2018-11-27T21:55:28.168Z,68.10
2018-11-27T21:57:56.352Z,68.00
2018-11-27T22:00:25.501Z,67.30
2018-11-27T22:02:53.843Z,68.40
2018-11-27T22:05:21.978Z,68.40
2018-11-27T22:07:50.911Z,68.90
2018-11-27T22:10:21.571Z,68.80
2018-11-27T22:12:52.172Z,69.10
2018-11-27T22:15:24.885Z,68.50
2018-11-27T22:17:53.055Z,68.20
2018-11-27T22:20:22.094Z,68.70
2018-11-27T22:22:50.244Z,68.40
2018-11-27T22:25:18.460Z,67.80
2018-11-27T22:27:46.708Z,67.90
2018-11-27T22:30:16.309Z,67.40
2018-11-27T22:32:45.725Z,66.90
2018-11-27T22:35:13.880Z,66.50
2018-11-27T22:37:42.081Z,66.70
2018-11-27T22:40:14.421Z,66.50
2018-11-27T22:42:42.780Z,67.30
2018-11-27T22:45:14.788Z,67.70
2018-11-27T22:47:43.064Z,67.40
2018-11-27T22:50:15.390Z,67.70
2018-11-27T22:52:43.603Z,67.40
2018-11-27T22:55:11.962Z,66.70
2018-11-27T22:57:40.218Z,67.20
2018-11-27T23:00:27.560Z,66.60
2018-11-27T23:02:55.900Z,66.60
2018-11-27T23:05:24.034Z,66.40
2018-11-27T23:07:52.154Z,66.50
2018-11-27T23:10:20.281Z,67.10
2018-11-27T23:12:48.550Z,66.90
2018-11-27T23:15:17.975Z,66.20
2018-11-27T23:17:46.167Z,67.20
2018-11-27T23:20:16.218Z,66.60
2018-11-27T23:22:44.381Z,66.00
2018-11-27T23:25:15.869Z,65.60
2018-11-27T23:27:43.989Z,65.20
2018-11-27T23:30:14.992Z,65.80
2018-11-27T23:32:43.192Z,65.40
2018-11-27T23:35:11.405Z,66.00
2018-11-27T23:37:39.686Z,66.50
2018-11-27T23:40:11.027Z,66.30
2018-11-27T23:42:39.239Z,65.50
2018-11-27T23:45:10.769Z,66.70
2018-11-27T23:47:38.934Z,67.50
2018-11-27T23:50:09.517Z,67.10
2018-11-27T23:52:37.693Z,66.40
2018-11-27T23:55:07.198Z,66.30
2018-11-27T23:57:35.702Z,66.80
